Time;durP1;ratioP1;P1;durP2;ratioP2;P2;SDS_P1;SDS_P2;PMS_P1;PMS_P2;Temp;Humidity;BMP_temperature;BMP_pressure;BME280_temperature;BME280_humidity;BME280_pressure;Samples;Min_cycle;Max_cycle;Signal;HPM_P1;HPM_P2
2023/04/29 00:01:09;;;;;;;;;;;;;;;29.57;40.29;101307.78;5082958;28;19924;-52
2023/04/29 00:03:34;;;;;;;;;;;;;;;29.76;40.40;101315.81;5096452;28;19972;-50
2023/04/29 00:06:00;;;;;;;;;;;;;;;28.91;45.51;101311.75;5098569;28;19916;-52
2023/04/29 00:08:25;;;;;;;;;;;;;;;25.40;51.33;101304.59;5095917;28;19943;-53
2023/04/29 00:10:51;;;;;;;;;;;;;;;24.96;54.37;101300.78;5100665;28;19921;-50
2023/04/29 00:13:16;;;;;;;;;;;;;;;24.07;59.63;101304.88;5099118;28;19927;-53
2023/04/29 00:15:42;;;;;;;;;;;;;;;24.37;60.08;101307.81;5099470;28;20000;-51
2023/04/29 00:18:08;;;;;;;;;;;;;;;25.02;59.61;101299.63;5096218;28;19934;-49
2023/04/29 00:20:33;;;;;;;;;;;;;;;23.59;63.67;101303.25;5105858;28;19960;-50
2023/04/29 00:22:58;;;;;;;;;;;;;;;23.78;64.72;101310.88;5104851;28;19947;-53
2023/04/29 00:25:24;;;;;;;;;;;;;;;24.60;63.64;101300.91;5098217;28;19912;-50
2023/04/29 00:27:49;;;;;;;;;;;;;;;23.18;66.67;101308.59;5094948;28;19927;-52
2023/04/29 00:30:15;;;;;;;;;;;;;;;23.23;67.75;101303.16;5112940;28;19916;-48
2023/04/29 00:32:40;;;;;;;;;;;;;;;23.67;66.60;101306.50;5116134;28;19926;-52
2023/04/29 00:35:06;;;;;;;;;;;;;;;23.92;65.42;101311.94;5116820;28;19916;-51
2023/04/29 00:37:32;;;;;;;;;;;;;;;23.50;66.64;101307.56;5080696;28;19927;-54
2023/04/29 00:39:57;;;;;;;;;;;;;;;24.46;63.84;101317.06;5083321;28;19948;-54
2023/04/29 00:42:24;;;;;;;;;;;;;;;24.23;64.88;101313.84;5101188;28;19958;-53
2023/04/29 00:44:50;;;;;;;;;;;;;;;24.25;64.98;101319.84;5102914;28;19931;-56
2023/04/29 00:47:15;;;;;;;;;;;;;;;24.73;63.33;101321.34;5084056;28;19920;-56
2023/04/29 00:49:40;;;;;;;;;;;;;;;26.28;60.64;101325.78;5103235;28;19956;-53
2023/04/29 00:52:07;;;;;;;;;;;;;;;25.03;59.87;101322.34;5110938;28;19920;-51
2023/04/29 00:54:32;;;;;;;;;;;;;;;24.33;64.60;101322.00;5120798;28;19966;-53
2023/04/29 00:57:00;;;;;;;;;;;;;;;23.41;66.51;101317.41;5122162;28;19916;-52
2023/04/29 00:59:30;;;;;;;;;;;;;;;23.33;67.82;101319.59;5122570;28;19916;-53
2023/04/29 01:02:01;;;;;;;;;;;;;;;23.22;68.31;101328.00;5120826;28;19920;-56
2023/04/29 01:04:26;;;;;;;;;;;;;;;28.53;57.28;101335.91;5121209;28;19916;-50
2023/04/29 01:07:01;;;;;;;;;;;;;;;24.41;63.35;101334.31;5123803;28;19926;-51
2023/04/29 01:09:45;;;;;;;;;;;;;;;23.23;66.75;101340.53;5122195;28;19931;-51
2023/04/29 01:12:21;;;;;;;;;;;;;;;25.75;59.33;101345.69;5117908;28;19965;-49
2023/04/29 01:14:53;;;;;;;;;;;;;;;23.19;68.25;101340.25;5120904;28;19958;-52
2023/04/29 01:17:22;;;;;;;;;;;;;;;23.00;70.17;101350.84;5119543;28;19912;-54
2023/04/29 01:19:49;;;;;;;;;;;;;;;22.66;71.21;101348.50;5136808;27;19919;-53
2023/04/29 01:22:17;;;;;;;;;;;;;;;23.19;69.50;101354.72;5121905;28;19927;-52
2023/04/29 01:24:43;;;;;;;;;;;;;;;22.92;70.69;101343.97;5119220;28;19970;-50
2023/04/29 01:27:29;;;;;;;;;;;;;;;30.68;53.42;101373.56;5124561;28;19924;-51
2023/04/29 01:30:27;;;;;;;;;;;;;;;32.81;43.46;101392.34;5122133;28;19916;-53
2023/04/29 01:32:56;;;;;;;;;;;;;;;31.29;45.27;101389.47;5121632;28;19920;-55
2023/04/29 01:35:33;;;;;;;;;;;;;;;25.17;56.36;101364.41;5123803;28;19931;-54
2023/04/29 01:38:23;;;;;;;;;;;;;;;25.12;61.42;101369.06;5123108;28;19916;-49
2023/04/29 01:40:55;;;;;;;;;;;;;;;23.50;64.70;101375.81;5121692;28;19916;-51
2023/04/29 01:43:23;;;;;;;;;;;;;;;22.77;67.73;101372.00;5126217;28;19916;-50
2023/04/29 01:45:50;;;;;;;;;;;;;;;22.66;69.05;101365.69;5127098;28;19916;-53
2023/04/29 01:48:16;;;;;;;;;;;;;;;22.75;69.62;101366.00;5118130;28;19916;-52
2023/04/29 01:50:43;;;;;;;;;;;;;;;22.43;70.82;101364.13;5154210;27;19924;-52
2023/04/29 01:53:13;;;;;;;;;;;;;;;24.28;66.63;101375.88;5151799;27;19927;-50
2023/04/29 01:55:38;;;;;;;;;;;;;;;25.01;63.34;101374.59;5117239;28;19921;-52
2023/04/29 01:58:16;;;;;;;;;;;;;;;23.44;65.15;101375.00;5126068;28;20009;-53
2023/04/29 02:00:53;;;;;;;;;;;;;;;26.38;64.48;101379.69;5123223;28;19916;-49
2023/04/29 02:03:19;;;;;;;;;;;;;;;22.95;68.62;101378.06;5123322;28;19923;-50
2023/04/29 02:05:49;;;;;;;;;;;;;;;22.92;70.14;101373.97;5121526;28;20012;-52
2023/04/29 02:08:16;;;;;;;;;;;;;;;23.07;68.90;101378.69;5124771;28;19924;-51
2023/04/29 02:10:56;;;;;;;;;;;;;;;22.98;68.68;101381.09;5117305;28;19916;-51
2023/04/29 02:13:31;;;;;;;;;;;;;;;22.84;69.11;101375.31;5117756;28;19945;-55
2023/04/29 02:15:57;;;;;;;;;;;;;;;22.70;68.98;101377.69;5117082;28;19923;-54
2023/04/29 02:18:22;;;;;;;;;;;;;;;22.77;68.75;101382.91;5118711;28;19975;-54
2023/04/29 02:20:50;;;;;;;;;;;;;;;23.58;67.30;101385.38;5116838;28;19924;-52
2023/04/29 02:23:16;;;;;;;;;;;;;;;23.68;66.24;101390.03;5119627;28;19920;-50
2023/04/29 02:25:41;;;;;;;;;;;;;;;23.52;66.96;101394.66;5118952;28;19916;-49
2023/04/29 02:28:06;;;;;;;;;;;;;;;23.77;66.53;101402.09;5113547;28;19920;-51
2023/04/29 02:30:32;;;;;;;;;;;;;;;25.00;61.71;101411.28;5111961;28;19924;-53
2023/04/29 02:32:58;;;;;;;;;;;;;;;24.88;62.46;101408.03;5111726;28;19959;-53
2023/04/29 02:35:23;;;;;;;;;;;;;;;24.08;63.77;101413.06;5111674;28;19926;-51
2023/04/29 02:37:49;;;;;;;;;;;;;;;23.88;64.85;101411.91;5110627;28;19980;-50
2023/04/29 02:40:15;;;;;;;;;;;;;;;22.75;68.40;101413.16;5109820;28;19923;-52
2023/04/29 02:42:40;;;;;;;;;;;;;;;22.48;70.20;101419.53;5113194;28;19916;-49
2023/04/29 02:45:06;;;;;;;;;;;;;;;22.43;70.52;101419.47;5113423;28;19912;-50
2023/04/29 02:47:31;;;;;;;;;;;;;;;23.67;64.74;101422.00;5117816;28;19978;-55
2023/04/29 02:49:57;;;;;;;;;;;;;;;22.30;70.78;101426.19;5154602;27;19920;-49
2023/04/29 02:52:23;;;;;;;;;;;;;;;22.20;71.46;101421.47;5150248;27;19920;-49
2023/04/29 02:54:49;;;;;;;;;;;;;;;22.37;71.30;101423.22;5121014;28;19923;-48
2023/04/29 02:57:15;;;;;;;;;;;;;;;23.71;65.42;101430.44;5122696;28;20036;-54
2023/04/29 02:59:40;;;;;;;;;;;;;;;23.02;68.58;101431.28;5117321;28;19938;-56
2023/04/29 03:02:06;;;;;;;;;;;;;;;23.05;67.98;101424.50;5119092;28;19998;-51
2023/04/29 03:04:33;;;;;;;;;;;;;;;22.88;69.14;101427.41;5118880;28;19916;-53
2023/04/29 03:06:58;;;;;;;;;;;;;;;24.73;60.47;101449.88;5118899;28;19916;-51
2023/04/29 03:09:25;;;;;;;;;;;;;;;23.39;65.77;101447.84;5118217;28;19916;-53
2023/04/29 03:11:52;;;;;;;;;;;;;;;23.34;66.44;101445.91;5119011;28;19992;-50
2023/04/29 03:14:17;;;;;;;;;;;;;;;23.24;66.46;101448.59;5119344;28;19931;-52
2023/04/29 03:16:43;;;;;;;;;;;;;;;23.23;66.72;101450.47;5118425;28;19920;-50
2023/04/29 03:19:09;;;;;;;;;;;;;;;23.35;66.51;101447.56;5116988;28;19923;-52
2023/04/29 03:21:35;;;;;;;;;;;;;;;23.33;66.75;101445.09;5114437;28;19923;-51
2023/04/29 03:24:01;;;;;;;;;;;;;;;23.17;67.08;101446.91;5119463;28;19930;-50
2023/04/29 03:26:32;;;;;;;;;;;;;;;22.89;67.75;101440.75;5115647;28;19913;-55
2023/04/29 03:28:57;;;;;;;;;;;;;;;23.16;67.35;101447.19;5116139;28;19962;-50
2023/04/29 03:31:24;;;;;;;;;;;;;;;23.05;67.82;101443.59;5115576;28;19951;-57
2023/04/29 03:33:50;;;;;;;;;;;;;;;23.09;67.83;101443.88;5114618;28;19916;-53
2023/04/29 03:36:15;;;;;;;;;;;;;;;23.20;67.44;101449.13;5115605;28;19927;-54
2023/04/29 03:39:01;;;;;;;;;;;;;;;23.01;67.85;101447.94;5117163;28;19938;-51
2023/04/29 03:41:28;;;;;;;;;;;;;;;22.55;69.01;101451.19;5116125;28;19927;-53
2023/04/29 03:43:55;;;;;;;;;;;;;;;22.41;69.64;101451.63;5119244;28;19943;-52
2023/04/29 03:46:20;;;;;;;;;;;;;;;23.20;67.70;101456.47;5119468;28;19916;-50
2023/04/29 03:48:46;;;;;;;;;;;;;;;22.77;67.79;101454.59;5113721;28;19931;-53
2023/04/29 03:51:12;;;;;;;;;;;;;;;22.81;68.17;101454.91;5107046;28;19928;-52
2023/04/29 03:53:38;;;;;;;;;;;;;;;23.16;67.39;101461.63;5100789;28;19919;-52
2023/04/29 03:56:04;;;;;;;;;;;;;;;23.41;67.43;101465.59;5107970;28;19917;-54
2023/04/29 03:58:30;;;;;;;;;;;;;;;23.71;65.51;101471.41;5100562;28;19932;-51
2023/04/29 04:00:55;;;;;;;;;;;;;;;23.66;65.61;101463.22;5079380;28;19924;-51
2023/04/29 04:03:27;;;;;;;;;;;;;;;23.82;65.20;101467.63;5080083;28;19920;-52
2023/04/29 04:05:54;;;;;;;;;;;;;;;23.34;65.61;101462.28;5113506;28;19943;-56
2023/04/29 04:08:20;;;;;;;;;;;;;;;23.59;65.60;101469.75;5079249;28;19920;-49
2023/04/29 04:11:04;;;;;;;;;;;;;;;23.75;65.12;101480.69;5096429;28;19916;-52
2023/04/29 04:13:43;;;;;;;;;;;;;;;23.42;65.79;101480.06;5112034;28;19999;-51
2023/04/29 04:16:09;;;;;;;;;;;;;;;23.38;65.84;101484.41;5084304;28;19916;-54
2023/04/29 04:18:36;;;;;;;;;;;;;;;23.40;65.52;101487.69;5080397;28;19952;-50
2023/04/29 04:21:06;;;;;;;;;;;;;;;24.68;62.54;101488.19;5116804;28;19959;-51
2023/04/29 04:23:31;;;;;;;;;;;;;;;25.15;61.68;101499.88;5119117;28;19916;-51
2023/04/29 04:25:57;;;;;;;;;;;;;;;26.45;59.82;101500.81;5120733;28;19916;-52
2023/04/29 04:28:41;;;;;;;;;;;;;;;25.85;58.46;101496.31;5100509;28;20010;-51
2023/04/29 04:31:13;;;;;;;;;;;;;;;25.92;58.65;101509.66;5085114;28;19991;-55
2023/04/29 04:33:39;;;;;;;;;;;;;;;25.71;58.49;101509.78;5083311;28;19920;-51
2023/04/29 04:36:05;;;;;;;;;;;;;;;26.29;57.25;101515.75;5084157;28;19948;-53
2023/04/29 04:38:31;;;;;;;;;;;;;;;25.83;57.46;101522.34;5117329;28;19930;-52
2023/04/29 04:40:58;;;;;;;;;;;;;;;25.41;58.33;101527.16;5080288;28;19932;-51
2023/04/29 04:43:34;;;;;;;;;;;;;;;24.98;58.91;101524.81;5086843;28;19923;-55
2023/04/29 04:46:11;;;;;;;;;;;;;;;25.09;59.44;101525.59;5116792;28;19951;-51
2023/04/29 04:48:40;;;;;;;;;;;;;;;25.69;57.86;101527.63;5084641;28;19927;-54
2023/04/29 04:51:09;;;;;;;;;;;;;;;25.57;57.84;101528.75;5082911;28;19920;-55
2023/04/29 04:53:34;;;;;;;;;;;;;;;24.81;58.86;101531.41;5091595;28;19916;-52
2023/04/29 04:56:05;;;;;;;;;;;;;;;24.92;59.28;101545.91;5089443;28;19920;-51
2023/04/29 04:58:32;;;;;;;;;;;;;;;24.38;59.65;101541.78;5089334;28;19916;-51
2023/04/29 05:01:00;;;;;;;;;;;;;;;25.75;57.82;101548.41;5108225;28;19920;-52
2023/04/29 05:03:25;;;;;;;;;;;;;;;25.11;58.01;101556.25;5089112;28;19921;-53
2023/04/29 05:05:56;;;;;;;;;;;;;;;24.94;58.79;101549.19;5086652;28;20003;-49
2023/04/29 05:08:21;;;;;;;;;;;;;;;25.71;57.61;101558.28;5088390;28;19916;-51
2023/04/29 05:10:51;;;;;;;;;;;;;;;26.80;55.57;101574.03;5087071;28;19917;-51
2023/04/29 05:13:16;;;;;;;;;;;;;;;25.50;56.50;101569.31;5088848;28;19943;-52
2023/04/29 05:15:42;;;;;;;;;;;;;;;24.40;59.52;101564.19;5092732;28;19947;-49
2023/04/29 05:18:08;;;;;;;;;;;;;;;24.88;59.37;101561.19;5090638;28;19917;-53
2023/04/29 05:20:33;;;;;;;;;;;;;;;25.01;58.81;101568.84;5092984;28;19923;-54
2023/04/29 05:23:00;;;;;;;;;;;;;;;25.14;58.25;101569.38;5088017;28;19917;-52
2023/04/29 05:25:28;;;;;;;;;;;;;;;24.91;58.76;101579.78;5091066;28;19920;-51
2023/04/29 05:27:54;;;;;;;;;;;;;;;24.40;59.77;101575.94;5087320;28;19916;-54
2023/04/29 05:30:20;;;;;;;;;;;;;;;24.30;59.73;101571.25;5086240;28;19927;-50
2023/04/29 05:32:47;;;;;;;;;;;;;;;24.49;59.76;101578.94;5103273;28;19979;-47
2023/04/29 05:35:15;;;;;;;;;;;;;;;25.16;58.77;101586.34;5087415;28;19916;-54
2023/04/29 05:37:40;;;;;;;;;;;;;;;25.13;58.00;101581.41;5083779;28;19988;-54
2023/04/29 05:40:22;;;;;;;;;;;;;;;25.10;57.80;101582.81;5102200;28;19984;-54
2023/04/29 05:42:49;;;;;;;;;;;;;;;24.82;58.31;101597.88;5090700;28;19916;-54
2023/04/29 05:45:14;;;;;;;;;;;;;;;24.73;58.67;101598.38;5091233;28;19916;-53
2023/04/29 05:47:40;;;;;;;;;;;;;;;25.34;57.46;101598.63;5093114;28;19947;-49
2023/04/29 05:50:06;;;;;;;;;;;;;;;26.28;55.45;101596.34;5094175;28;19917;-50
2023/04/29 05:52:32;;;;;;;;;;;;;;;25.22;56.83;101600.84;5114758;28;19920;-49
2023/04/29 05:54:57;;;;;;;;;;;;;;;24.38;58.13;101594.50;5122502;28;19915;-51
2023/04/29 05:57:23;;;;;;;;;;;;;;;24.74;57.75;101599.19;5120560;28;19916;-52
2023/04/29 05:59:48;;;;;;;;;;;;;;;24.96;57.46;101609.06;5119103;28;19920;-52
2023/04/29 06:02:14;;;;;;;;;;;;;;;25.18;57.40;101612.34;5120136;28;19920;-52
2023/04/29 06:04:41;;;;;;;;;;;;;;;25.16;56.89;101622.75;5122322;28;19919;-52
2023/04/29 06:07:26;;;;;;;;;;;;;;;25.28;56.28;101616.97;5119791;28;19978;-51
2023/04/29 06:10:18;;;;;;;;;;;;;;;25.12;56.67;101629.03;5118066;28;19916;-54
2023/04/29 06:12:45;;;;;;;;;;;;;;;25.43;55.92;101629.00;5122886;28;19931;-53
2023/04/29 06:15:12;;;;;;;;;;;;;;;24.95;56.61;101632.06;5116228;28;19916;-50
2023/04/29 06:17:37;;;;;;;;;;;;;;;24.84;56.90;101632.06;5120507;28;19920;-49
2023/04/29 06:20:03;;;;;;;;;;;;;;;24.62;56.52;101632.28;5118449;28;19919;-48
2023/04/29 06:22:29;;;;;;;;;;;;;;;24.76;56.56;101638.91;5123121;28;19916;-53
2023/04/29 06:24:55;;;;;;;;;;;;;;;24.92;56.85;101647.13;5118038;28;19990;-52
2023/04/29 06:27:33;;;;;;;;;;;;;;;24.86;56.97;101646.28;5106222;28;19916;-47
2023/04/29 06:29:58;;;;;;;;;;;;;;;25.25;56.50;101652.28;5153613;27;19961;-50
2023/04/29 06:32:24;;;;;;;;;;;;;;;25.19;56.62;101655.03;5120214;28;19954;-54
2023/04/29 06:34:50;;;;;;;;;;;;;;;25.43;56.26;101654.44;5122491;28;19991;-50
2023/04/29 06:37:25;;;;;;;;;;;;;;;25.68;56.16;101665.66;5120518;28;19916;-54
2023/04/29 06:40:29;;;;;;;;;;;;;;;25.33;55.35;101663.50;5097917;28;19923;-53
2023/04/29 06:43:11;;;;;;;;;;;;;;;25.02;55.94;101671.72;5085065;28;19923;-50
2023/04/29 06:45:58;;;;;;;;;;;;;;;25.52;55.83;101681.31;5114965;28;19942;-54
2023/04/29 06:48:47;;;;;;;;;;;;;;;29.97;48.43;101692.19;5100616;28;19973;-53
2023/04/29 06:51:12;;;;;;;;;;;;;;;26.60;52.45;101678.13;5121916;28;19924;-57
2023/04/29 06:53:38;;;;;;;;;;;;;;;27.12;52.00;101687.94;5121860;28;19920;-52
2023/04/29 06:56:04;;;;;;;;;;;;;;;26.48;52.18;101692.19;5122558;28;19924;-54
2023/04/29 06:58:30;;;;;;;;;;;;;;;26.03;53.79;101689.38;5121568;28;19942;-53
2023/04/29 07:00:55;;;;;;;;;;;;;;;25.76;54.22;101697.94;5122791;28;19984;-52
2023/04/29 07:03:21;;;;;;;;;;;;;;;25.97;54.07;101698.72;5122474;28;19990;-55
2023/04/29 07:05:46;;;;;;;;;;;;;;;26.11;53.58;101701.69;5125137;28;19923;-54
2023/04/29 07:08:12;;;;;;;;;;;;;;;25.66;54.41;101709.75;5121413;28;19975;-50
2023/04/29 07:10:37;;;;;;;;;;;;;;;26.59;53.38;101714.09;5107282;28;20010;-50
2023/04/29 07:13:03;;;;;;;;;;;;;;;26.66;53.51;101714.59;5120013;28;19916;-54
2023/04/29 07:15:29;;;;;;;;;;;;;;;26.53;53.37;101726.19;5153061;27;19927;-51
2023/04/29 07:17:55;;;;;;;;;;;;;;;27.13;52.88;101723.34;5122756;28;19918;-50
2023/04/29 07:20:20;;;;;;;;;;;;;;;27.12;52.77;101723.63;5124694;28;19920;-53
2023/04/29 07:22:47;;;;;;;;;;;;;;;26.57;52.67;101730.00;5121287;28;19922;-50
2023/04/29 07:25:13;;;;;;;;;;;;;;;26.83;52.50;101730.66;5120135;28;19916;-53
2023/04/29 07:27:39;;;;;;;;;;;;;;;26.89;52.52;101734.22;5120768;28;19959;-53
2023/04/29 07:30:05;;;;;;;;;;;;;;;26.79;52.38;101728.78;5119914;28;19944;-51
2023/04/29 07:32:31;;;;;;;;;;;;;;;27.52;51.96;101731.81;5119406;28;19942;-54
2023/04/29 07:35:01;;;;;;;;;;;;;;;26.58;52.94;101737.13;5118844;28;19920;-54
2023/04/29 07:37:27;;;;;;;;;;;;;;;26.27;53.13;101745.50;5116697;28;19979;-55
2023/04/29 07:39:52;;;;;;;;;;;;;;;26.58;53.02;101743.44;5118555;28;19916;-52
2023/04/29 07:42:18;;;;;;;;;;;;;;;26.29;53.40;101754.25;5120369;28;19920;-54
2023/04/29 07:44:44;;;;;;;;;;;;;;;26.12;53.70;101749.09;5123418;28;19916;-56
2023/04/29 07:47:10;;;;;;;;;;;;;;;25.70;54.17;101754.66;5123578;28;19979;-57
2023/04/29 07:49:36;;;;;;;;;;;;;;;26.03;53.77;101757.06;5122821;28;19978;-55
2023/04/29 07:52:03;;;;;;;;;;;;;;;25.95;53.75;101768.59;5121172;28;19904;-52
2023/04/29 07:54:29;;;;;;;;;;;;;;;26.24;53.04;101771.56;5121996;28;19924;-53
2023/04/29 07:56:56;;;;;;;;;;;;;;;26.28;52.43;101764.41;5117884;28;19916;-56
2023/04/29 07:59:22;;;;;;;;;;;;;;;26.44;52.33;101767.09;5118336;28;19924;-53
2023/04/29 08:01:47;;;;;;;;;;;;;;;26.52;51.97;101768.41;5118738;28;19920;-54
2023/04/29 08:04:13;;;;;;;;;;;;;;;26.70;51.63;101772.47;5153372;27;19919;-57
2023/04/29 08:06:47;;;;;;;;;;;;;;;26.86;50.93;101774.03;5122029;28;19927;-56
2023/04/29 08:09:13;;;;;;;;;;;;;;;27.84;50.35;101768.88;5124105;28;19920;-55
2023/04/29 08:11:41;;;;;;;;;;;;;;;28.42;49.89;101778.97;5120858;28;20014;-54
2023/04/29 08:14:10;;;;;;;;;;;;;;;27.87;49.20;101774.59;5124341;28;20052;-55
2023/04/29 08:16:37;;;;;;;;;;;;;;;28.49;48.68;101775.88;5120208;28;19967;-56
2023/04/29 08:19:02;;;;;;;;;;;;;;;28.49;48.74;101778.63;5124193;28;19923;-54
2023/04/29 08:21:28;;;;;;;;;;;;;;;28.59;48.21;101777.63;5118189;28;19916;-56
2023/04/29 08:23:55;;;;;;;;;;;;;;;28.62;47.75;101777.06;5120415;28;19938;-54
2023/04/29 08:26:21;;;;;;;;;;;;;;;28.24;47.86;101779.75;5120482;28;19920;-56
2023/04/29 08:28:47;;;;;;;;;;;;;;;28.20;48.28;101774.00;5122984;28;19924;-54
2023/04/29 08:31:17;;;;;;;;;;;;;;;28.66;47.56;101778.09;5123960;28;19916;-50
2023/04/29 08:33:42;;;;;;;;;;;;;;;28.98;47.28;101784.81;5120641;28;19916;-52
2023/04/29 08:36:08;;;;;;;;;;;;;;;29.24;46.90;101795.44;5119026;28;19923;-55
2023/04/29 08:38:34;;;;;;;;;;;;;;;29.23;46.73;101802.06;5122480;28;19916;-52
2023/04/29 08:40:59;;;;;;;;;;;;;;;30.03;45.11;101807.63;5122134;28;19915;-54
2023/04/29 08:43:25;;;;;;;;;;;;;;;29.56;45.79;101804.03;5119925;28;19995;-53
2023/04/29 08:45:50;;;;;;;;;;;;;;;29.46;45.34;101799.53;5120170;28;20025;-54
2023/04/29 08:48:16;;;;;;;;;;;;;;;29.10;45.59;101806.41;5122581;28;19916;-55
2023/04/29 08:50:42;;;;;;;;;;;;;;;29.31;44.54;101809.66;5112906;28;19939;-55
2023/04/29 08:53:11;;;;;;;;;;;;;;;29.14;45.43;101804.69;5103592;28;19924;-54
2023/04/29 08:55:46;;;;;;;;;;;;;;;28.37;44.91;101806.50;5100739;28;19924;-55
2023/04/29 08:58:12;;;;;;;;;;;;;;;28.52;45.47;101807.44;5103716;28;19923;-53
2023/04/29 09:00:42;;;;;;;;;;;;;;;28.86;44.98;101809.25;5091507;28;19920;-52
2023/04/29 09:03:14;;;;;;;;;;;;;;;29.84;44.74;101813.19;5105284;28;19947;-56
2023/04/29 09:05:40;;;;;;;;;;;;;;;29.51;44.56;101810.44;5110479;28;19927;-52
2023/04/29 09:08:06;;;;;;;;;;;;;;;29.64;45.23;101805.28;5112647;28;19954;-57
2023/04/29 09:10:32;;;;;;;;;;;;;;;29.90;44.85;101814.72;5104796;28;19976;-53
2023/04/29 09:12:57;;;;;;;;;;;;;;;29.95;43.67;101822.09;5108012;28;19927;-55
2023/04/29 09:15:23;;;;;;;;;;;;;;;29.93;43.59;101818.00;5105817;28;19917;-53
2023/04/29 09:17:48;;;;;;;;;;;;;;;30.18;44.84;101823.03;5113115;28;19916;-51
2023/04/29 09:20:23;;;;;;;;;;;;;;;30.63;43.15;101829.91;5111554;28;20014;-52
2023/04/29 09:22:49;;;;;;;;;;;;;;;31.26;42.90;101829.38;5107123;28;19920;-51
2023/04/29 09:25:15;;;;;;;;;;;;;;;30.64;43.87;101836.25;5112300;28;19920;-53
2023/04/29 09:27:40;;;;;;;;;;;;;;;30.75;42.37;101837.66;5108347;28;19947;-56
2023/04/29 09:30:07;;;;;;;;;;;;;;;30.38;43.74;101834.00;5111181;28;19943;-54
2023/04/29 09:32:32;;;;;;;;;;;;;;;31.78;41.75;101844.69;5111373;28;19920;-53
2023/04/29 09:34:58;;;;;;;;;;;;;;;32.54;39.11;101845.66;5111489;28;19931;-51
2023/04/29 09:37:26;;;;;;;;;;;;;;;34.22;37.48;101849.09;5112745;28;20424;-53
2023/04/29 09:39:52;;;;;;;;;;;;;;;35.74;35.60;101868.72;5106686;28;19920;-56
2023/04/29 09:42:18;;;;;;;;;;;;;;;32.40;38.42;101843.00;5107858;28;19916;-52
2023/04/29 09:44:44;;;;;;;;;;;;;;;32.73;38.11;101846.16;5105650;28;19916;-54
2023/04/29 09:47:09;;;;;;;;;;;;;;;33.36;38.32;101856.16;5108651;28;19941;-52
2023/04/29 09:49:40;;;;;;;;;;;;;;;34.53;36.46;101862.69;5105735;28;19918;-54
2023/04/29 09:52:07;;;;;;;;;;;;;;;35.93;34.61;101864.59;5109767;28;19920;-56
2023/04/29 09:54:33;;;;;;;;;;;;;;;36.19;34.69;101866.25;5124671;28;19915;-56
2023/04/29 09:56:59;;;;;;;;;;;;;;;35.72;35.36;101854.34;5124807;28;19962;-54
2023/04/29 09:59:25;;;;;;;;;;;;;;;33.58;36.56;101855.16;5123786;28;19955;-53
2023/04/29 10:01:52;;;;;;;;;;;;;;;33.42;37.40;101859.56;5122976;28;19934;-50
2023/04/29 10:04:19;;;;;;;;;;;;;;;32.89;36.39;101845.72;5122998;28;19916;-50
2023/04/29 10:06:47;;;;;;;;;;;;;;;33.31;37.56;101854.38;5118843;28;19916;-53
2023/04/29 10:09:16;;;;;;;;;;;;;;;33.47;35.76;101851.94;5123480;28;19916;-56
2023/04/29 10:11:49;;;;;;;;;;;;;;;33.40;36.31;101856.31;5116298;28;19955;-55
2023/04/29 10:14:16;;;;;;;;;;;;;;;33.27;37.27;101864.47;5124050;28;19916;-52
2023/04/29 10:17:02;;;;;;;;;;;;;;;32.75;36.62;101856.94;5121943;28;19916;-55
2023/04/29 10:19:31;;;;;;;;;;;;;;;32.84;38.33;101860.50;5120564;28;19920;-54
2023/04/29 10:21:59;;;;;;;;;;;;;;;31.17;38.05;101865.19;5122041;28;19979;-56
2023/04/29 10:24:24;;;;;;;;;;;;;;;31.77;37.29;101865.97;5122014;28;20099;-52
2023/04/29 10:26:50;;;;;;;;;;;;;;;34.02;35.58;101873.69;5121526;28;19917;-56
2023/04/29 10:29:16;;;;;;;;;;;;;;;33.33;34.97;101879.78;5121975;28;19916;-53
2023/04/29 10:31:43;;;;;;;;;;;;;;;32.78;35.59;101875.66;5121782;28;19951;-53
2023/04/29 10:34:08;;;;;;;;;;;;;;;32.59;36.97;101873.19;5122700;28;19920;-51
2023/04/29 10:36:36;;;;;;;;;;;;;;;32.23;37.05;101876.94;5120207;27;19946;-53
2023/04/29 10:39:02;;;;;;;;;;;;;;;32.16;36.52;101881.00;5124804;28;19916;-56
2023/04/29 10:41:30;;;;;;;;;;;;;;;33.00;35.52;101869.22;5122274;28;19987;-54
2023/04/29 10:43:57;;;;;;;;;;;;;;;33.17;35.46;101881.41;5123350;28;19922;-53
2023/04/29 10:46:25;;;;;;;;;;;;;;;33.12;35.77;101878.81;5122092;28;20001;-54
2023/04/29 10:48:55;;;;;;;;;;;;;;;32.84;36.56;101877.13;5122650;28;19925;-50
2023/04/29 10:51:31;;;;;;;;;;;;;;;32.35;38.35;101874.41;5118309;28;19920;-54
2023/04/29 10:54:07;;;;;;;;;;;;;;;32.88;37.72;101869.03;5105447;28;19916;-52
2023/04/29 10:56:36;;;;;;;;;;;;;;;34.36;33.68;101885.75;5105787;28;19920;-55
2023/04/29 10:59:02;;;;;;;;;;;;;;;34.86;33.08;101883.38;5102566;28;19924;-52
2023/04/29 11:01:41;;;;;;;;;;;;;;;34.89;34.79;101879.94;5104311;28;19983;-55
2023/04/29 11:04:08;;;;;;;;;;;;;;;34.79;34.33;101885.88;5109645;28;19912;-52
2023/04/29 11:06:34;;;;;;;;;;;;;;;35.53;33.38;101888.25;5101672;28;19916;-54
2023/04/29 11:09:03;;;;;;;;;;;;;;;36.14;31.77;101889.59;5107836;28;19922;-51
2023/04/29 11:11:45;;;;;;;;;;;;;;;37.79;32.01;101894.88;5105551;28;19912;-52
2023/04/29 11:14:11;;;;;;;;;;;;;;;38.81;30.64;101900.94;5103682;28;19924;-56
2023/04/29 11:16:37;;;;;;;;;;;;;;;39.61;28.52;101908.16;5102894;28;19920;-55
2023/04/29 11:19:06;;;;;;;;;;;;;;;38.93;28.63;101902.81;5092212;28;19916;-56
2023/04/29 11:21:35;;;;;;;;;;;;;;;41.08;27.69;101910.84;5097581;28;19917;-56
2023/04/29 11:24:02;;;;;;;;;;;;;;;41.07;25.43;101916.84;5101518;28;19928;-54
2023/04/29 11:26:27;;;;;;;;;;;;;;;42.66;25.08;101921.13;5095943;28;19917;-53
2023/04/29 11:28:53;;;;;;;;;;;;;;;42.24;25.89;101909.22;5101353;28;19923;-53
2023/04/29 11:31:18;;;;;;;;;;;;;;;40.40;25.01;101911.53;5100076;28;19916;-56
2023/04/29 11:33:43;;;;;;;;;;;;;;;39.33;25.91;101900.00;5106708;28;19920;-55
2023/04/29 11:36:13;;;;;;;;;;;;;;;39.03;26.04;101895.03;5106333;28;20365;-52
2023/04/29 11:38:39;;;;;;;;;;;;;;;37.86;29.10;101886.69;5107421;28;19944;-55
2023/04/29 11:41:05;;;;;;;;;;;;;;;43.09;24.81;101897.22;5097409;28;19998;-53
2023/04/29 11:43:30;;;;;;;;;;;;;;;42.45;23.84;101893.72;5105750;28;19916;-55
2023/04/29 11:45:56;;;;;;;;;;;;;;;40.97;24.78;101887.50;5101396;28;19921;-52
2023/04/29 11:48:21;;;;;;;;;;;;;;;42.57;25.31;101884.13;5107620;28;19924;-55
2023/04/29 11:50:51;;;;;;;;;;;;;;;41.64;23.88;101887.84;5105944;28;19922;-54
2023/04/29 11:53:20;;;;;;;;;;;;;;;42.34;24.32;101882.38;5102790;28;19987;-53
2023/04/29 11:55:47;;;;;;;;;;;;;;;39.70;25.63;101885.53;5103359;28;19923;-53
2023/04/29 11:58:13;;;;;;;;;;;;;;;39.35;27.60;101887.28;5111899;28;19952;-55
2023/04/29 12:00:39;;;;;;;;;;;;;;;38.24;26.42;101884.47;5103240;28;19921;-54
2023/04/29 12:03:17;;;;;;;;;;;;;;;38.01;25.85;101884.28;5094800;28;19960;-53
2023/04/29 12:05:53;;;;;;;;;;;;;;;38.37;25.76;101882.38;5092267;28;20288;-54
2023/04/29 12:08:19;;;;;;;;;;;;;;;38.57;26.28;101888.03;5095406;28;19920;-57
2023/04/29 12:10:45;;;;;;;;;;;;;;;38.01;25.37;101881.50;5096681;28;19927;-56
2023/04/29 12:13:11;;;;;;;;;;;;;;;38.52;25.53;101877.94;5094066;28;19920;-53
2023/04/29 12:15:37;;;;;;;;;;;;;;;38.87;25.28;101884.69;5098167;28;19938;-54
2023/04/29 12:18:03;;;;;;;;;;;;;;;38.19;25.80;101881.13;5101166;28;19927;-55
2023/04/29 12:20:29;;;;;;;;;;;;;;;37.62;27.36;101879.28;5101510;28;19934;-54
2023/04/29 12:22:54;;;;;;;;;;;;;;;37.80;26.70;101882.53;5101658;28;19928;-53
2023/04/29 12:25:23;;;;;;;;;;;;;;;37.76;25.63;101878.84;5098740;28;19923;-56
2023/04/29 12:27:48;;;;;;;;;;;;;;;38.21;26.08;101876.00;5103238;28;19935;-54
2023/04/29 12:30:14;;;;;;;;;;;;;;;38.56;25.51;101884.41;5101516;28;19961;-57
2023/04/29 12:32:40;;;;;;;;;;;;;;;37.12;26.18;101876.72;5100390;28;19932;-55
2023/04/29 12:35:14;;;;;;;;;;;;;;;37.31;25.87;101873.25;5103465;28;19920;-56
2023/04/29 12:37:39;;;;;;;;;;;;;;;38.10;26.68;101887.72;5104248;28;19912;-56
2023/04/29 12:40:05;;;;;;;;;;;;;;;39.43;25.79;101882.63;5107747;28;19961;-54